Time;durP1;ratioP1;P1;durP2;ratioP2;P2;SDS_P1;SDS_P2;PMS_P1;PMS_P2;Temp;Humidity;BMP_temperature;BMP_pressure;BME280_temperature;BME280_humidity;BME280_pressure;Samples;Min_cycle;Max_cycle;Signal;HPM_P1;HPM_P2
2022/03/08 00:00:14;;;;;;;3.43;2.67;;;-2.20;99.90;-2.60;101482.00;;;;4954293;28;117179;-66
2022/03/08 00:02:40;;;;;;;7.60;2.60;;;-2.10;99.90;-2.60;101487.00;;;;4986221;28;88743;-67
2022/03/08 00:05:06;;;;;;;2.00;1.30;;;-2.10;99.90;-2.60;101479.00;;;;4954056;28;87583;-67
2022/03/08 00:07:32;;;;;;;3.07;2.03;;;-2.20;99.90;-2.60;101494.00;;;;4955197;28;101225;-66
2022/03/08 00:09:57;;;;;;;3.07;2.17;;;-2.10;99.90;-2.60;101484.00;;;;4954442;28;117719;-67
2022/03/08 00:12:23;;;;;;;4.73;2.00;;;-2.10;99.90;-2.60;101484.00;;;;4954465;28;110534;-66
2022/03/08 00:14:49;;;;;;;3.47;1.83;;;-1.20;99.90;-2.60;101479.00;;;;4954318;28;109142;-66
2022/03/08 00:17:14;;;;;;;3.07;2.10;;;-1.70;99.90;-2.60;101483.00;;;;4954156;28;117955;-67
2022/03/08 00:19:40;;;;;;;2.87;1.93;;;-2.30;99.90;-2.70;101489.00;;;;4952961;28;111799;-66
2022/03/08 00:22:06;;;;;;;4.13;2.23;;;-2.10;99.90;-2.80;101484.00;;;;4954404;28;111744;-67
2022/03/08 00:24:32;;;;;;;2.93;2.30;;;-1.40;99.90;-2.80;101485.00;;;;4955605;28;108681;-67
2022/03/08 00:26:57;;;;;;;2.67;2.23;;;-3.10;99.90;-2.80;101485.00;;;;4955381;28;89842;-67
2022/03/08 00:29:23;;;;;;;3.20;2.63;;;-1.70;99.90;-2.90;101481.00;;;;4955544;28;91817;-67
2022/03/08 00:31:49;;;;;;;2.00;1.83;;;-2.40;99.90;-2.90;101466.00;;;;4954352;28;110592;-67
2022/03/08 00:34:14;;;;;;;2.87;2.47;;;-2.50;99.90;-2.90;101474.00;;;;4955457;28;87561;-67
2022/03/08 00:36:40;;;;;;;3.30;2.07;;;-2.50;99.90;-2.90;101468.00;;;;4954181;28;116233;-67
2022/03/08 00:39:06;;;;;;;4.10;2.30;;;-2.40;99.90;-2.90;101472.00;;;;4985555;28;116569;-67
2022/03/08 00:41:31;;;;;;;2.20;1.40;;;-1.60;99.90;-2.90;101468.00;;;;4954449;28;110015;-67
2022/03/08 00:43:57;;;;;;;3.33;2.30;;;-2.50;99.90;-2.90;101476.00;;;;4954838;28;108549;-67
2022/03/08 00:46:23;;;;;;;2.53;1.53;;;-2.50;99.90;-2.90;101474.00;;;;4954753;28;100601;-66
2022/03/08 00:48:49;;;;;;;6.17;2.17;;;-2.50;99.90;-2.90;101472.00;;;;4954048;28;118375;-67
2022/03/08 00:51:14;;;;;;;4.03;2.07;;;-2.50;99.90;-3.00;101461.00;;;;4969053;28;89027;-67
2022/03/08 00:53:40;;;;;;;4.03;2.43;;;-3.00;99.90;-3.00;101461.00;;;;4955918;28;87729;-67
2022/03/08 00:56:06;;;;;;;2.90;2.23;;;-2.60;99.90;-3.00;101456.00;;;;4954746;28;117099;-67
2022/03/08 00:58:34;;;;;;;3.57;2.93;;;-2.50;99.90;-3.00;101453.00;;;;4956209;28;87867;-67
2022/03/08 01:00:59;;;;;;;3.97;2.73;;;-1.60;99.90;-3.00;101450.00;;;;4958419;28;87914;-67
2022/03/08 01:03:25;;;;;;;6.77;2.83;;;-2.50;99.90;-3.00;101448.00;;;;4957799;28;94935;-67
2022/03/08 01:05:51;;;;;;;2.93;2.67;;;-2.50;99.90;-3.00;101458.00;;;;4956868;28;118401;-67
2022/03/08 01:08:16;;;;;;;4.17;3.40;;;-2.50;99.90;-3.00;101463.00;;;;4958158;28;117782;-67
2022/03/08 01:10:42;;;;;;;11.37;3.93;;;-2.50;99.90;-3.00;101451.00;;;;4957813;28;102142;-67
2022/03/08 01:13:08;;;;;;;3.50;2.77;;;-2.60;99.90;-3.00;101439.00;;;;4957585;28;109485;-67
2022/03/08 01:15:34;;;;;;;3.10;2.70;;;-2.60;99.90;-3.00;101457.00;;;;4958015;28;89919;-67
2022/03/08 01:18:00;;;;;;;5.23;2.53;;;-2.50;99.90;-3.10;101437.00;;;;4957948;28;91717;-67
2022/03/08 01:20:26;;;;;;;7.53;2.47;;;-2.90;99.90;-3.10;101441.00;;;;4957440;28;87691;-67
2022/03/08 01:22:53;;;;;;;8.87;2.50;;;-2.70;99.90;-3.20;101443.00;;;;4958636;28;87890;-68
2022/03/08 01:25:23;;;;;;;4.93;3.17;;;-2.60;99.90;-3.20;101443.00;;;;4957636;28;88633;-67
2022/03/08 01:27:50;;;;;;;5.60;2.57;;;-2.80;99.90;-3.30;101440.00;;;;4955883;28;88162;-67
2022/03/08 01:30:20;;;;;;;5.10;2.67;;;-2.80;99.90;-3.40;101441.00;;;;4957805;28;87777;-67
2022/03/08 01:32:46;;;;;;;2.87;2.07;;;-2.90;99.90;-3.40;101438.00;;;;4958418;28;86933;-67
2022/03/08 01:35:13;;;;;;;4.00;2.30;;;-2.90;99.90;-3.50;101432.00;;;;4957832;28;88457;-67
2022/03/08 01:37:39;;;;;;;3.47;2.30;;;-2.90;99.90;-3.50;101434.00;;;;4957053;28;105719;-67
2022/03/08 01:40:08;;;;;;;3.07;2.40;;;-3.00;99.90;-3.50;101421.00;;;;4956337;28;95566;-67
2022/03/08 01:42:34;;;;;;;2.83;2.33;;;-3.00;99.90;-3.50;101425.00;;;;4957987;28;87748;-67
2022/03/08 01:45:01;;;;;;;4.33;2.70;;;-3.00;99.90;-3.50;101430.00;;;;4957636;28;88758;-67
2022/03/08 01:47:27;;;;;;;2.30;1.93;;;-3.20;99.90;-3.60;101426.00;;;;4957684;28;88759;-67
2022/03/08 01:49:54;;;;;;;4.07;2.70;;;-3.10;99.90;-3.60;101426.00;;;;4958123;28;87677;-67
2022/03/08 01:52:23;;;;;;;3.13;2.33;;;-3.10;99.90;-3.60;101418.00;;;;4956353;28;107499;-67
2022/03/08 01:54:50;;;;;;;6.47;2.23;;;-3.10;99.90;-3.70;101416.00;;;;4957226;28;88962;-66
2022/03/08 01:57:16;;;;;;;2.93;2.00;;;-3.20;99.90;-3.70;101410.00;;;;4957897;28;87955;-67
2022/03/08 01:59:42;;;;;;;5.80;2.67;;;-2.50;99.90;-3.70;101411.00;;;;4957530;28;87732;-66
2022/03/08 02:02:09;;;;;;;3.33;2.50;;;-3.20;99.90;-3.70;101406.00;;;;4956782;28;108980;-68
2022/03/08 02:04:35;;;;;;;5.57;2.83;;;-3.20;99.90;-3.70;101404.00;;;;4957505;28;89175;-67
2022/03/08 02:07:01;;;;;;;5.73;3.83;;;-3.20;99.90;-3.70;101413.00;;;;4957053;28;105110;-67
2022/03/08 02:09:27;;;;;;;3.97;3.23;;;-2.30;99.90;-3.70;101421.00;;;;4956466;28;87775;-67
2022/03/08 02:11:53;;;;;;;4.57;2.87;;;-3.30;99.90;-3.70;101411.00;;;;4956585;28;109000;-67
2022/03/08 02:14:19;;;;;;;6.80;3.80;;;-3.20;99.90;-3.70;101420.00;;;;4955546;28;118307;-67
2022/03/08 02:16:46;;;;;;;6.80;4.80;;;-3.30;99.90;-3.70;101419.00;;;;4956288;28;118062;-67
2022/03/08 02:19:14;;;;;;;5.20;3.97;;;-3.00;99.90;-3.70;101419.00;;;;4957685;28;87786;-68
2022/03/08 02:21:40;;;;;;;3.97;3.57;;;-3.20;99.90;-3.70;101415.00;;;;4957023;28;86776;-67
2022/03/08 02:24:07;;;;;;;5.20;3.80;;;-3.30;99.90;-3.70;101411.00;;;;4957149;28;88823;-67
2022/03/08 02:26:32;;;;;;;5.13;3.73;;;-3.30;99.90;-3.80;101418.00;;;;4956424;28;117250;-67
2022/03/08 02:29:00;;;;;;;5.43;2.97;;;-3.30;99.90;-3.80;101418.00;;;;4956607;28;88873;-67
2022/03/08 02:31:26;;;;;;;3.27;2.83;;;-3.30;99.90;-3.80;101411.00;;;;4956847;28;87707;-67
2022/03/08 02:33:52;;;;;;;4.43;3.30;;;-3.30;99.90;-3.90;101403.00;;;;4957012;28;88545;-67
2022/03/08 02:36:18;;;;;;;5.70;3.40;;;-2.80;99.90;-3.90;101408.00;;;;4956058;28;100745;-67
2022/03/08 02:38:44;;;;;;;4.73;3.43;;;-3.40;99.90;-4.00;101408.00;;;;4957217;28;90518;-67
2022/03/08 02:41:10;;;;;;;4.00;2.83;;;-3.50;99.90;-4.00;101405.00;;;;4956694;28;87765;-67
2022/03/08 02:43:35;;;;;;;6.37;3.40;;;-3.50;99.90;-4.10;101401.00;;;;4957020;28;88588;-67
2022/03/08 02:46:01;;;;;;;5.20;3.07;;;-3.40;99.90;-4.10;101399.00;;;;4955583;28;117432;-68
2022/03/08 02:48:29;;;;;;;7.70;4.10;;;-2.80;99.90;-4.10;101409.00;;;;4938552;28;87886;-68
2022/03/08 02:50:55;;;;;;;6.23;3.67;;;-3.60;99.90;-4.10;101398.00;;;;4956105;28;91948;-68
2022/03/08 02:53:21;;;;;;;2.77;2.50;;;-3.60;99.90;-4.00;101406.00;;;;4954182;28;89015;-68
2022/03/08 02:55:47;;;;;;;5.63;3.90;;;-3.60;99.90;-4.00;101405.00;;;;4955801;28;103848;-67
2022/03/08 02:58:13;;;;;;;5.43;4.43;;;-3.50;99.90;-4.00;101404.00;;;;4957816;28;109442;-68
2022/03/08 03:00:39;;;;;;;7.70;4.30;;;-3.50;99.90;-4.00;101399.00;;;;4956124;28;93426;-67
2022/03/08 03:03:06;;;;;;;6.20;3.47;;;-3.50;99.90;-4.10;101405.00;;;;4956504;28;95197;-67
2022/03/08 03:05:32;;;;;;;5.53;3.80;;;-3.50;99.90;-4.10;101402.00;;;;4956384;28;88632;-68
2022/03/08 03:07:58;;;;;;;6.00;3.73;;;-3.60;99.90;-4.20;101406.00;;;;4955006;28;87920;-68
2022/03/08 03:10:25;;;;;;;6.50;4.00;;;-3.40;99.90;-4.20;101411.00;;;;4956609;28;87026;-68
2022/03/08 03:12:53;;;;;;;5.67;3.47;;;-3.70;99.90;-4.20;101409.00;;;;4970847;28;104127;-68
2022/03/08 03:15:20;;;;;;;8.37;3.93;;;-3.00;99.90;-4.20;101421.00;;;;4954226;28;87737;-68
2022/03/08 03:17:46;;;;;;;6.60;3.80;;;-3.70;99.90;-4.20;101430.00;;;;4956224;28;88801;-68
2022/03/08 03:20:16;;;;;;;5.43;2.73;;;-3.70;99.90;-4.20;101430.00;;;;4955562;28;88088;-68
2022/03/08 03:22:43;;;;;;;4.80;3.47;;;-3.70;99.90;-4.30;101429.00;;;;4953829;28;89423;-68
2022/03/08 03:25:10;;;;;;;5.37;3.27;;;-3.70;99.90;-4.30;101439.00;;;;4954885;28;111491;-68
2022/03/08 03:27:36;;;;;;;8.27;4.27;;;-3.70;99.90;-4.40;101440.00;;;;4935918;28;94484;-68
2022/03/08 03:30:05;;;;;;;7.10;3.90;;;-3.80;99.90;-4.40;101442.00;;;;4936865;28;87977;-68
2022/03/08 03:32:31;;;;;;;4.33;3.20;;;-3.90;99.90;-4.40;101447.00;;;;4956066;28;93239;-68
2022/03/08 03:34:56;;;;;;;5.13;2.77;;;-3.90;99.90;-4.40;101438.00;;;;4955132;28;116279;-68
2022/03/08 03:37:23;;;;;;;5.10;2.90;;;-3.90;99.90;-4.40;101451.00;;;;4954339;28;111196;-69
2022/03/08 03:39:50;;;;;;;2.73;2.50;;;-3.90;99.90;-4.50;101447.00;;;;4937330;28;87712;-68
2022/03/08 03:42:16;;;;;;;3.97;2.83;;;-4.00;99.90;-4.50;101450.00;;;;4954427;28;92432;-68
2022/03/08 03:44:42;;;;;;;4.47;2.80;;;-2.80;99.90;-4.60;101456.00;;;;4955196;28;88599;-68
2022/03/08 03:47:09;;;;;;;5.27;3.30;;;-3.00;99.90;-4.60;101455.00;;;;4955136;28;110316;-68
2022/03/08 03:49:34;;;;;;;6.13;3.47;;;-3.10;99.90;-4.60;101451.00;;;;4955750;28;88046;-68
2022/03/08 03:52:00;;;;;;;5.07;3.47;;;-4.10;99.90;-4.60;101450.00;;;;4954196;28;118291;-68
2022/03/08 03:54:26;;;;;;;3.60;2.90;;;-4.10;99.90;-4.70;101460.00;;;;4954259;28;102054;-69
2022/03/08 03:56:52;;;;;;;7.10;2.70;;;-4.10;99.90;-4.70;101460.00;;;;4955682;28;88195;-69
2022/03/08 03:59:18;;;;;;;6.53;3.57;;;-4.20;99.90;-4.70;101457.00;;;;4955150;28;86845;-69
2022/03/08 04:01:44;;;;;;;3.23;2.87;;;-4.30;99.90;-4.80;101452.00;;;;4952943;28;90471;-69
2022/03/08 04:04:09;;;;;;;3.60;2.90;;;-4.10;99.90;-4.80;101451.00;;;;4954469;28;117433;-68
2022/03/08 04:06:35;;;;;;;5.40;3.00;;;-3.70;99.90;-4.80;101454.00;;;;4952372;28;100805;-68
2022/03/08 04:09:03;;;;;;;6.90;2.90;;;-4.20;99.90;-4.80;101445.00;;;;4955505;28;87758;-68
2022/03/08 04:11:29;;;;;;;5.43;2.80;;;-4.30;99.90;-4.80;101458.00;;;;4986683;28;89021;-69
2022/03/08 04:13:55;;;;;;;6.03;3.50;;;-4.20;99.90;-4.80;101446.00;;;;4954154;28;116418;-69
2022/03/08 04:16:21;;;;;;;4.13;3.00;;;-4.20;99.90;-4.80;101455.00;;;;4954395;28;108818;-68
2022/03/08 04:18:46;;;;;;;6.27;2.90;;;-4.30;99.90;-4.90;101445.00;;;;4955250;28;87789;-69
2022/03/08 04:21:12;;;;;;;5.87;1.90;;;-4.30;99.90;-4.90;101447.00;;;;4951526;28;117296;-68
2022/03/08 04:23:38;;;;;;;3.37;2.67;;;-4.30;99.90;-5.00;101451.00;;;;4955879;28;88449;-68
2022/03/08 04:26:04;;;;;;;4.33;3.20;;;-4.40;99.90;-5.00;101453.00;;;;4954564;28;110762;-69
2022/03/08 04:28:29;;;;;;;2.93;2.70;;;-4.50;99.90;-5.00;101455.00;;;;4955088;28;87747;-69
2022/03/08 04:30:55;;;;;;;4.43;2.67;;;-4.50;99.90;-4.90;101450.00;;;;4953557;28;119661;-69
2022/03/08 04:33:21;;;;;;;9.53;3.57;;;-3.60;99.90;-4.90;101450.00;;;;4953474;28;88867;-69
2022/03/08 04:35:47;;;;;;;3.57;2.57;;;-4.40;99.90;-5.00;101446.00;;;;4953527;28;87896;-68
2022/03/08 04:38:13;;;;;;;10.03;3.33;;;-4.20;99.90;-4.90;101440.00;;;;4955187;28;87820;-69
2022/03/08 04:40:38;;;;;;;2.73;2.53;;;-4.50;99.90;-5.00;101442.00;;;;4953415;28;110623;-69
2022/03/08 04:43:04;;;;;;;9.03;3.67;;;-4.40;99.90;-5.00;101447.00;;;;4953552;28;117426;-69
2022/03/08 04:45:30;;;;;;;4.43;2.83;;;-4.40;99.90;-5.00;101436.00;;;;4954053;28;87755;-69
2022/03/08 04:47:56;;;;;;;5.13;2.90;;;-4.50;99.90;-5.00;101437.00;;;;4955486;28;86877;-69
2022/03/08 04:50:21;;;;;;;4.80;2.70;;;-4.40;99.90;-5.10;101452.00;;;;4952237;28;117953;-69
2022/03/08 04:52:49;;;;;;;4.90;3.03;;;-4.60;99.90;-5.10;101453.00;;;;4954547;28;87917;-69
2022/03/08 04:55:17;;;;;;;3.83;3.00;;;-4.50;99.90;-5.10;101456.00;;;;4952390;28;88845;-68
2022/03/08 04:57:44;;;;;;;6.83;2.73;;;-4.60;99.90;-5.10;101446.00;;;;4955297;28;87615;-69
2022/03/08 05:00:12;;;;;;;3.50;2.47;;;-4.60;99.90;-5.10;101453.00;;;;4953785;28;88665;-69
2022/03/08 05:02:43;;;;;;;7.60;3.10;;;-4.60;99.90;-5.10;101455.00;;;;4954279;28;93853;-69
2022/03/08 05:05:10;;;;;;;4.70;3.27;;;-4.60;99.90;-5.10;101462.00;;;;4952309;28;88228;-69
2022/03/08 05:07:37;;;;;;;4.30;3.13;;;-4.60;99.90;-5.10;101465.00;;;;4953009;28;87993;-69
2022/03/08 05:10:10;;;;;;;8.30;4.30;;;-4.50;99.90;-5.10;101460.00;;;;4954116;28;102882;-69
2022/03/08 05:12:37;;;;;;;5.70;3.37;;;-4.50;99.90;-5.10;101462.00;;;;4955478;28;88367;-69
2022/03/08 05:15:05;;;;;;;6.97;2.93;;;-4.60;99.90;-5.10;101468.00;;;;4954276;28;87677;-69
2022/03/08 05:17:31;;;;;;;5.50;4.10;;;-4.60;99.90;-5.20;101451.00;;;;4953725;28;87636;-69
2022/03/08 05:19:57;;;;;;;8.57;4.33;;;-4.70;99.90;-5.20;101466.00;;;;4953602;28;92725;-70
2022/03/08 05:22:22;;;;;;;5.33;3.83;;;-3.60;99.90;-5.20;101458.00;;;;4953592;28;118098;-69
2022/03/08 05:24:48;;;;;;;8.27;5.17;;;-4.60;99.90;-5.20;101456.00;;;;4952570;28;111988;-69
2022/03/08 05:27:14;;;;;;;6.43;4.30;;;-4.60;99.90;-5.20;101455.00;;;;4953994;28;92711;-69
2022/03/08 05:29:40;;;;;;;7.47;3.67;;;-4.70;99.90;-5.20;101464.00;;;;4954010;28;88825;-69
2022/03/08 05:32:07;;;;;;;5.73;3.80;;;-4.60;99.90;-5.20;101459.00;;;;4951616;28;101826;-69
2022/03/08 05:34:33;;;;;;;5.27;3.73;;;-4.70;99.90;-5.20;101463.00;;;;4950940;28;96321;-69
2022/03/08 05:36:58;;;;;;;7.43;5.20;;;-4.70;99.90;-5.20;101460.00;;;;4949317;28;88083;-69
2022/03/08 05:39:24;;;;;;;7.13;4.67;;;-4.70;99.90;-5.20;101466.00;;;;4950102;28;113188;-69
2022/03/08 05:41:50;;;;;;;14.83;5.70;;;-4.70;99.90;-5.20;101469.00;;;;4949726;28;88799;-69
2022/03/08 05:44:16;;;;;;;11.80;5.47;;;-4.60;99.90;-5.20;101478.00;;;;4951049;28;100620;-69
2022/03/08 05:46:43;;;;;;;11.97;4.90;;;-4.70;99.90;-5.20;101474.00;;;;4954447;28;107492;-69
2022/03/08 05:49:09;;;;;;;8.40;5.20;;;-4.70;99.90;-5.20;101485.00;;;;4957416;28;98026;-69
2022/03/08 05:51:35;;;;;;;5.47;3.73;;;-4.70;99.90;-5.20;101482.00;;;;4955741;28;87713;-69
2022/03/08 05:54:01;;;;;;;6.63;4.80;;;-4.60;99.90;-5.20;101483.00;;;;4957715;28;87784;-69
2022/03/08 05:56:27;;;;;;;8.17;5.07;;;-4.60;99.90;-5.10;101472.00;;;;4957358;28;87933;-69
2022/03/08 05:58:52;;;;;;;26.70;6.57;;;-4.60;99.90;-5.10;101487.00;;;;4956501;28;117364;-69
2022/03/08 06:01:18;;;;;;;5.97;4.37;;;-4.80;99.90;-5.00;101481.00;;;;4961713;28;92585;-69
2022/03/08 06:03:44;;;;;;;8.50;4.27;;;-4.50;99.90;-4.90;101478.00;;;;4955265;28;110510;-69
2022/03/08 06:06:10;;;;;;;12.93;5.67;;;-4.40;99.90;-4.80;101488.00;;;;4957147;28;87807;-70
2022/03/08 06:08:35;;;;;;;14.43;5.30;;;-3.30;99.90;-4.60;101494.00;;;;4956185;28;89079;-69
2022/03/08 06:11:01;;;;;;;10.10;5.00;;;-4.10;99.90;-4.40;101488.00;;;;4955629;28;119280;-69
2022/03/08 06:13:27;;;;;;;5.03;3.77;;;-4.00;99.90;-4.20;101498.00;;;;4956171;28;110222;-69
2022/03/08 06:15:52;;;;;;;6.80;3.83;;;-3.80;99.90;-4.00;101497.00;;;;4956868;28;109220;-69
2022/03/08 06:18:18;;;;;;;9.63;4.80;;;-3.50;99.90;-3.80;101506.00;;;;4956109;28;105455;-69
2022/03/08 06:20:44;;;;;;;3.27;2.80;;;-3.40;99.90;-3.60;101515.00;;;;4956093;28;116378;-69
2022/03/08 06:23:09;;;;;;;8.30;5.37;;;-2.20;99.90;-3.40;101525.00;;;;4956695;28;110099;-69
2022/03/08 06:25:35;;;;;;;4.47;4.03;;;-3.00;99.90;-3.10;101527.00;;;;4957299;28;86939;-70
2022/03/08 06:28:01;;;;;;;5.60;5.03;;;-2.70;99.90;-2.90;101529.00;;;;4937753;28;116323;-70
2022/03/08 06:30:27;;;;;;;5.90;4.67;;;-2.50;99.90;-2.70;101533.00;;;;4955340;28;116210;-69
2022/03/08 06:32:53;;;;;;;5.80;4.47;;;-2.30;99.90;-2.40;101525.00;;;;4970875;28;88872;-69
2022/03/08 06:35:19;;;;;;;9.10;4.20;;;-2.10;99.90;-2.20;101521.00;;;;4956884;28;87854;-69
2022/03/08 06:37:45;;;;;;;7.20;4.60;;;-1.80;99.90;-2.00;101527.00;;;;4987421;28;89641;-69
2022/03/08 06:40:12;;;;;;;8.43;4.47;;;-1.50;99.90;-1.80;101536.00;;;;4956230;28;101856;-69
2022/03/08 06:42:38;;;;;;;4.37;3.87;;;-1.40;99.90;-1.60;101528.00;;;;4956241;28;98238;-69
2022/03/08 06:45:08;;;;;;;6.17;4.77;;;-1.20;99.90;-1.30;101528.00;;;;4956948;28;87906;-69
2022/03/08 06:47:34;;;;;;;7.13;4.47;;;-1.00;99.90;-1.10;101530.00;;;;4956508;28;88772;-69
2022/03/08 06:50:00;;;;;;;4.27;3.80;;;-0.90;99.90;-0.90;101525.00;;;;4956292;28;88617;-69
2022/03/08 06:52:26;;;;;;;7.43;4.27;;;-0.50;99.90;-0.60;101537.00;;;;4955167;28;110190;-69
2022/03/08 06:54:51;;;;;;;6.00;4.67;;;-0.40;99.90;-0.50;101532.00;;;;4955687;28;107383;-69
2022/03/08 06:57:17;;;;;;;8.03;6.10;;;0.70;99.90;-0.30;101538.00;;;;4985823;28;91357;-68
2022/03/08 06:59:43;;;;;;;9.73;6.37;;;0.80;99.90;-0.10;101544.00;;;;4956340;28;101505;-68
2022/03/08 07:02:08;;;;;;;7.03;4.27;;;0.20;99.90;0.20;101537.00;;;;4955249;28;90129;-69
2022/03/08 07:04:35;;;;;;;5.00;4.27;;;0.40;99.90;0.50;101536.00;;;;4936851;28;108018;-66
2022/03/08 07:07:01;;;;;;;6.63;4.30;;;0.70;99.90;0.70;101545.00;;;;4955899;28;89212;-68
2022/03/08 07:09:26;;;;;;;4.60;4.13;;;0.80;99.90;0.90;101547.00;;;;4956477;28;100999;-69
2022/03/08 07:11:52;;;;;;;11.03;5.07;;;1.10;99.90;1.10;101544.00;;;;4956192;28;87830;-68
2022/03/08 07:14:18;;;;;;;8.73;4.37;;;1.30;99.90;1.40;101545.00;;;;4956212;28;87073;-69
2022/03/08 07:16:46;;;;;;;9.23;5.07;;;2.50;99.90;1.60;101553.00;;;;4956124;28;87904;-68
2022/03/08 07:19:13;;;;;;;6.23;4.37;;;2.20;99.90;1.80;101553.00;;;;4953846;28;87595;-67
2022/03/08 07:21:40;;;;;;;4.27;3.87;;;2.70;99.90;2.10;101551.00;;;;4986173;28;88763;-68
2022/03/08 07:24:06;;;;;;;6.67;3.53;;;3.00;99.90;2.30;101552.00;;;;4956153;28;89670;-68
2022/03/08 07:26:32;;;;;;;5.37;3.83;;;2.50;99.90;2.60;101551.00;;;;4956493;28;88211;-68
2022/03/08 07:28:58;;;;;;;3.73;3.40;;;3.30;99.90;2.90;101553.00;;;;4955766;28;88439;-67
2022/03/08 07:31:23;;;;;;;4.70;3.50;;;3.00;99.90;3.20;101550.00;;;;4954756;28;110099;-69
2022/03/08 07:33:49;;;;;;;5.17;2.63;;;3.20;99.90;3.40;101561.00;;;;4955360;28;108178;-69
2022/03/08 07:36:15;;;;;;;6.90;3.10;;;3.60;99.90;3.80;101561.00;;;;4953958;28;87804;-68
2022/03/08 07:38:41;;;;;;;3.27;2.97;;;4.50;99.90;4.00;101566.00;;;;4955759;28;87955;-68
2022/03/08 07:41:06;;;;;;;5.33;3.17;;;4.10;99.90;4.30;101565.00;;;;4955675;28;95414;-69
2022/03/08 07:43:34;;;;;;;5.60;3.43;;;4.40;99.90;4.70;101555.00;;;;4954693;28;108922;-68
2022/03/08 07:46:01;;;;;;;7.13;3.20;;;4.70;99.90;5.10;101548.00;;;;4954804;28;88916;-67
2022/03/08 07:48:27;;;;;;;4.53;3.07;;;5.20;99.90;5.40;101558.00;;;;4954741;28;107129;-67
2022/03/08 07:50:53;;;;;;;4.23;2.97;;;5.50;99.90;5.80;101552.00;;;;4955581;28;94560;-66
2022/03/08 07:53:19;;;;;;;5.60;4.23;;;5.80;99.90;6.10;101548.00;;;;4955208;28;107511;-68
2022/03/08 07:55:44;;;;;;;6.03;3.47;;;6.10;99.00;6.40;101538.00;;;;4954678;28;117958;-68
2022/03/08 07:58:12;;;;;;;4.33;3.30;;;6.40;98.00;6.70;101539.00;;;;4954743;28;117803;-68
2022/03/08 08:00:40;;;;;;;6.57;3.20;;;6.70;96.10;6.80;101549.00;;;;4955697;28;87740;-68
2022/03/08 08:03:07;;;;;;;5.60;3.57;;;6.90;93.50;6.80;101548.00;;;;4955130;28;96359;-68
2022/03/08 08:05:34;;;;;;;4.47;3.30;;;6.90;93.00;7.00;101548.00;;;;4955386;28;89053;-67
2022/03/08 08:08:04;;;;;;;3.00;2.53;;;7.00;92.80;7.20;101551.00;;;;4954485;28;88614;-67
2022/03/08 08:10:30;;;;;;;3.80;2.73;;;7.30;92.10;7.40;101558.00;;;;4955428;28;88895;-66
2022/03/08 08:12:55;;;;;;;4.40;2.53;;;7.40;91.30;7.60;101555.00;;;;4954966;28;98125;-66
2022/03/08 08:15:21;;;;;;;5.83;3.40;;;7.60;91.30;7.90;101558.00;;;;4953373;28;118231;-66
2022/03/08 08:17:47;;;;;;;4.77;2.70;;;7.90;91.00;8.20;101569.00;;;;4954172;28;97017;-66
2022/03/08 08:20:13;;;;;;;4.83;2.93;;;8.20;88.60;8.30;101574.00;;;;4955418;28;87963;-66
2022/03/08 08:22:39;;;;;;;3.27;2.63;;;8.30;84.10;8.40;101575.00;;;;4954476;28;87939;-66
2022/03/08 08:25:06;;;;;;;6.63;3.33;;;8.40;83.70;8.50;101581.00;;;;4954217;28;117807;-66
2022/03/08 08:27:32;;;;;;;5.50;3.50;;;8.60;84.00;8.80;101576.00;;;;4953048;28;87760;-65
2022/03/08 08:29:58;;;;;;;5.50;2.80;;;8.80;83.10;9.10;101586.00;;;;4954514;28;95237;-66
2022/03/08 08:32:23;;;;;;;6.60;2.70;;;9.00;81.10;9.30;101583.00;;;;4953865;28;107279;-66
2022/03/08 08:34:49;;;;;;;4.60;2.83;;;9.30;80.30;9.60;101588.00;;;;4953028;28;117055;-65
2022/03/08 08:37:15;;;;;;;5.30;2.60;;;9.50;80.00;9.90;101576.00;;;;4953519;28;118753;-66
2022/03/08 08:39:40;;;;;;;5.50;2.87;;;9.80;77.10;10.00;101583.00;;;;4954294;28;109886;-65
2022/03/08 08:42:07;;;;;;;6.03;2.73;;;10.00;75.50;10.10;101574.00;;;;4954736;28;87749;-66
2022/03/08 08:44:33;;;;;;;4.13;2.43;;;10.10;75.00;10.30;101583.00;;;;4953795;28;89052;-66
2022/03/08 08:46:59;;;;;;;5.03;2.47;;;10.30;74.50;10.60;101574.00;;;;4954551;28;102865;-66
2022/03/08 08:49:25;;;;;;;3.33;2.07;;;10.50;73.90;10.80;101574.00;;;;4953421;28;87907;-66
2022/03/08 08:51:51;;;;;;;6.57;2.63;;;10.70;71.80;11.00;101578.00;;;;4955869;28;87173;-66
2022/03/08 08:54:18;;;;;;;4.10;2.63;;;11.00;71.20;11.30;101577.00;;;;4953976;28;88992;-66
2022/03/08 08:56:43;;;;;;;8.43;2.47;;;11.20;70.30;11.60;101574.00;;;;4954891;28;88214;-66
2022/03/08 08:59:10;;;;;;;7.63;2.77;;;11.50;68.90;11.70;101576.00;;;;4985523;28;109768;-66
2022/03/08 09:01:36;;;;;;;4.80;2.47;;;11.70;66.00;11.80;101581.00;;;;4954408;28;87855;-66
2022/03/08 09:04:02;;;;;;;4.77;3.07;;;11.70;64.90;11.90;101567.00;;;;4953998;28;94266;-67
2022/03/08 09:06:28;;;;;;;8.57;3.60;;;11.90;64.70;12.10;101568.00;;;;4954126;28;102127;-67
2022/03/08 09:08:56;;;;;;;4.10;3.00;;;12.10;64.10;12.30;101573.00;;;;4955367;28;88010;-67
2022/03/08 09:11:22;;;;;;;4.20;3.03;;;12.20;62.10;12.50;101570.00;;;;4954682;28;88023;-66
2022/03/08 09:13:48;;;;;;;6.70;2.63;;;12.40;61.40;12.60;101573.00;;;;4954841;28;92819;-66
2022/03/08 09:16:16;;;;;;;5.13;3.53;;;12.60;60.70;12.70;101575.00;;;;4953846;28;117492;-66
2022/03/08 09:18:44;;;;;;;5.57;3.43;;;12.70;59.70;12.80;101556.00;;;;4953597;28;87814;-66
2022/03/08 09:21:11;;;;;;;6.43;3.33;;;12.80;58.50;12.80;101555.00;;;;4957854;28;91450;-66
2022/03/08 09:23:38;;;;;;;6.20;3.63;;;12.80;57.70;12.80;101559.00;;;;4956864;28;89761;-65
2022/03/08 09:26:05;;;;;;;7.33;2.97;;;12.80;57.10;12.80;101555.00;;;;4956215;28;87646;-66
2022/03/08 09:28:31;;;;;;;4.03;3.03;;;12.80;56.20;12.70;101560.00;;;;4956983;28;92339;-65
2022/03/08 09:30:59;;;;;;;5.23;3.20;;;12.70;55.90;12.90;101560.00;;;;4959190;28;87697;-65
2022/03/08 09:33:25;;;;;;;2.73;2.13;;;12.70;56.60;13.10;101568.00;;;;4959658;28;88784;-65
2022/03/08 09:35:51;;;;;;;6.70;2.40;;;12.90;57.10;13.30;101570.00;;;;4958657;28;105004;-65
2022/03/08 09:38:17;;;;;;;6.23;2.70;;;13.10;56.40;13.60;101582.00;;;;4956748;28;110778;-66
2022/03/08 09:40:43;;;;;;;4.50;2.83;;;13.40;56.20;13.90;101581.00;;;;4957864;28;87031;-66
2022/03/08 09:43:09;;;;;;;5.77;3.20;;;13.60;54.60;14.10;101578.00;;;;4957118;28;93031;-66
2022/03/08 09:45:35;;;;;;;4.23;3.03;;;14.10;54.20;14.10;101571.00;;;;4957027;28;95439;-65
2022/03/08 09:48:02;;;;;;;4.27;3.33;;;14.00;51.90;14.10;101579.00;;;;4956409;28;111769;-64
2022/03/08 09:50:29;;;;;;;4.60;2.87;;;13.90;50.60;14.10;101578.00;;;;4957418;28;87736;-65
2022/03/08 09:52:57;;;;;;;4.00;2.47;;;13.90;50.80;14.20;101572.00;;;;4955807;28;88263;-66
2022/03/08 09:55:25;;;;;;;3.00;2.10;;;14.00;50.90;14.30;101573.00;;;;4957861;28;88520;-67
2022/03/08 09:57:52;;;;;;;5.00;2.17;;;14.00;50.00;14.20;101566.00;;;;4957638;28;87782;-68
2022/03/08 10:00:19;;;;;;;3.50;1.87;;;13.90;48.90;14.30;101558.00;;;;4955812;28;88006;-67
2022/03/08 10:02:56;;;;;;;1.93;1.60;;;14.00;50.00;14.60;101555.00;;;;4957483;28;87758;-66
2022/03/08 10:05:43;;;;;;;3.93;1.97;;;14.20;50.20;14.80;101554.00;;;;4957009;28;87621;-66
2022/03/08 10:08:19;;;;;;;3.57;2.57;;;14.40;50.20;15.10;101562.00;;;;4956568;28;87803;-67
2022/03/08 10:11:09;;;;;;;4.97;2.13;;;14.60;49.70;15.30;101561.00;;;;4955606;28;87801;-67
2022/03/08 10:13:46;;;;;;;1.77;1.43;;;14.90;48.60;15.20;101565.00;;;;4958678;28;89524;-67
2022/03/08 10:16:29;;;;;;;2.47;1.87;;;14.90;47.50;15.30;101552.00;;;;4956553;28;89468;-66
2022/03/08 10:18:58;;;;;;;3.73;2.37;;;14.90;47.90;15.50;101548.00;;;;4955295;28;87846;-70
2022/03/08 10:21:25;;;;;;;3.40;1.93;;;15.10;48.40;15.70;101550.00;;;;4957156;28;87695;-69
2022/03/08 10:23:52;;;;;;;3.03;1.70;;;15.30;46.90;15.70;101546.00;;;;4956532;28;88848;-68
2022/03/08 10:26:19;;;;;;;3.25;2.35;;;15.30;46.60;15.80;101547.00;;;;4956155;28;87623;-69
2022/03/08 10:28:53;;;;;;;2.50;1.90;;;15.40;46.60;15.90;101558.00;;;;4957355;28;87591;-68
2022/03/08 10:31:19;;;;;;;3.03;1.88;;;15.50;46.70;16.10;101561.00;;;;4956133;28;87093;-68
2022/03/08 10:33:46;;;;;;;1.80;1.70;;;15.60;46.60;16.10;101560.00;;;;4954419;28;90986;-69
2022/03/08 10:36:21;;;;;;;5.10;2.00;;;15.70;45.60;16.20;101563.00;;;;4957248;28;88206;-69
2022/03/08 10:39:12;;;;;;;2.65;1.67;;;15.80;46.00;16.40;101552.00;;;;4954996;28;89103;-69
2022/03/08 10:41:48;;;;;;;2.60;1.80;;;16.00;46.00;16.50;101555.00;;;;4956763;28;87740;-68
2022/03/08 10:44:15;;;;;;;3.78;1.98;;;16.10;44.10;16.30;101559.00;;;;4956578;28;88023;-67